sensor_id;sensor_type;location;lat;lon;timestamp;P1;durP1;ratioP1;P2;durP2;ratioP2
11731;SDS011;5922;53.734;10.258;2022-08-18T00:00:03;4.10;;;3.70;;
11731;SDS011;5922;53.734;10.258;2022-08-18T00:02:32;5.00;;;3.67;;
11731;SDS011;5922;53.734;10.258;2022-08-18T00:04:59;5.23;;;3.60;;
11731;SDS011;5922;53.734;10.258;2022-08-18T00:07:27;3.80;;;3.47;;
11731;SDS011;5922;53.734;10.258;2022-08-18T00:09:55;6.47;;;4.00;;
11731;SDS011;5922;53.734;10.258;2022-08-18T00:12:23;5.77;;;4.10;;
11731;SDS011;5922;53.734;10.258;2022-08-18T00:14:51;4.47;;;3.53;;
11731;SDS011;5922;53.734;10.258;2022-08-18T00:17:19;4.67;;;3.27;;
11731;SDS011;5922;53.734;10.258;2022-08-18T00:19:47;5.13;;;3.63;;
11731;SDS011;5922;53.734;10.258;2022-08-18T00:22:15;4.53;;;3.50;;
11731;SDS011;5922;53.734;10.258;2022-08-18T00:24:43;5.83;;;3.27;;
11731;SDS011;5922;53.734;10.258;2022-08-18T00:27:10;5.00;;;3.77;;
11731;SDS011;5922;53.734;10.258;2022-08-18T00:29:37;6.13;;;3.73;;
11731;SDS011;5922;53.734;10.258;2022-08-18T00:32:10;5.33;;;3.50;;
11731;SDS011;5922;53.734;10.258;2022-08-18T00:34:38;3.90;;;3.43;;
11731;SDS011;5922;53.734;10.258;2022-08-18T00:37:06;5.43;;;3.80;;
11731;SDS011;5922;53.734;10.258;2022-08-18T00:39:33;5.87;;;3.20;;
11731;SDS011;5922;53.734;10.258;2022-08-18T00:42:10;5.47;;;3.60;;
11731;SDS011;5922;53.734;10.258;2022-08-18T00:44:37;6.00;;;3.60;;
11731;SDS011;5922;53.734;10.258;2022-08-18T00:47:04;5.37;;;3.67;;
11731;SDS011;5922;53.734;10.258;2022-08-18T00:49:32;5.07;;;3.30;;
11731;SDS011;5922;53.734;10.258;2022-08-18T00:51:59;5.73;;;3.30;;
11731;SDS011;5922;53.734;10.258;2022-08-18T00:54:29;7.13;;;3.60;;
11731;SDS011;5922;53.734;10.258;2022-08-18T00:56:58;6.00;;;3.20;;
11731;SDS011;5922;53.734;10.258;2022-08-18T00:59:27;6.17;;;3.50;;
11731;SDS011;5922;53.734;10.258;2022-08-18T01:01:57;4.33;;;3.17;;
11731;SDS011;5922;53.734;10.258;2022-08-18T01:04:27;6.57;;;3.50;;
11731;SDS011;5922;53.734;10.258;2022-08-18T01:06:59;5.30;;;3.60;;
11731;SDS011;5922;53.734;10.258;2022-08-18T01:09:27;5.17;;;3.80;;
11731;SDS011;5922;53.734;10.258;2022-08-18T01:11:56;5.47;;;3.27;;
11731;SDS011;5922;53.734;10.258;2022-08-18T01:14:23;5.77;;;3.50;;
11731;SDS011;5922;53.734;10.258;2022-08-18T01:16:50;8.87;;;3.57;;
11731;SDS011;5922;53.734;10.258;2022-08-18T01:19:35;6.30;;;3.60;;
11731;SDS011;5922;53.734;10.258;2022-08-18T01:22:23;6.10;;;3.63;;
11731;SDS011;5922;53.734;10.258;2022-08-18T01:24:53;5.37;;;3.27;;
11731;SDS011;5922;53.734;10.258;2022-08-18T01:27:39;4.83;;;3.53;;
11731;SDS011;5922;53.734;10.258;2022-08-18T01:30:08;7.07;;;3.90;;
11731;SDS011;5922;53.734;10.258;2022-08-18T01:32:36;6.33;;;3.50;;
11731;SDS011;5922;53.734;10.258;2022-08-18T01:35:04;6.37;;;3.70;;
11731;SDS011;5922;53.734;10.258;2022-08-18T01:37:33;5.03;;;3.40;;
11731;SDS011;5922;53.734;10.258;2022-08-18T01:40:02;8.23;;;4.07;;
11731;SDS011;5922;53.734;10.258;2022-08-18T01:42:31;5.93;;;3.27;;
11731;SDS011;5922;53.734;10.258;2022-08-18T01:44:58;6.43;;;3.40;;
11731;SDS011;5922;53.734;10.258;2022-08-18T01:47:27;7.10;;;3.63;;
11731;SDS011;5922;53.734;10.258;2022-08-18T01:49:55;6.40;;;3.10;;
11731;SDS011;5922;53.734;10.258;2022-08-18T01:52:24;3.97;;;3.30;;
11731;SDS011;5922;53.734;10.258;2022-08-18T01:54:53;4.33;;;3.40;;
11731;SDS011;5922;53.734;10.258;2022-08-18T01:57:23;4.83;;;3.53;;
11731;SDS011;5922;53.734;10.258;2022-08-18T01:59:50;7.37;;;3.90;;
11731;SDS011;5922;53.734;10.258;2022-08-18T02:02:19;7.47;;;3.43;;
11731;SDS011;5922;53.734;10.258;2022-08-18T02:04:48;5.63;;;3.23;;
11731;SDS011;5922;53.734;10.258;2022-08-18T02:07:16;4.10;;;3.70;;
11731;SDS011;5922;53.734;10.258;2022-08-18T02:09:43;4.40;;;3.30;;
11731;SDS011;5922;53.734;10.258;2022-08-18T02:12:10;5.70;;;3.03;;
11731;SDS011;5922;53.734;10.258;2022-08-18T02:14:47;6.90;;;3.30;;
11731;SDS011;5922;53.734;10.258;2022-08-18T02:17:15;3.80;;;3.20;;
11731;SDS011;5922;53.734;10.258;2022-08-18T02:19:44;8.07;;;3.43;;
11731;SDS011;5922;53.734;10.258;2022-08-18T02:22:14;7.50;;;3.40;;
11731;SDS011;5922;53.734;10.258;2022-08-18T02:24:42;8.77;;;3.50;;
11731;SDS011;5922;53.734;10.258;2022-08-18T02:27:13;6.07;;;3.70;;
11731;SDS011;5922;53.734;10.258;2022-08-18T02:32:24;6.60;;;3.97;;
11731;SDS011;5922;53.734;10.258;2022-08-18T02:34:51;8.97;;;4.47;;
11731;SDS011;5922;53.734;10.258;2022-08-18T02:37:18;6.47;;;4.60;;
11731;SDS011;5922;53.734;10.258;2022-08-18T02:39:45;5.03;;;4.13;;
11731;SDS011;5922;53.734;10.258;2022-08-18T02:42:13;7.83;;;5.03;;
11731;SDS011;5922;53.734;10.258;2022-08-18T02:44:41;8.17;;;5.20;;
11731;SDS011;5922;53.734;10.258;2022-08-18T02:47:09;11.37;;;5.50;;
11731;SDS011;5922;53.734;10.258;2022-08-18T02:49:37;5.77;;;5.27;;
11731;SDS011;5922;53.734;10.258;2022-08-18T02:52:04;5.70;;;5.20;;
11731;SDS011;5922;53.734;10.258;2022-08-18T02:54:32;6.80;;;5.23;;
11731;SDS011;5922;53.734;10.258;2022-08-18T02:57:04;6.30;;;5.70;;
11731;SDS011;5922;53.734;10.258;2022-08-18T02:59:32;7.03;;;5.27;;
11731;SDS011;5922;53.734;10.258;2022-08-18T03:01:59;9.47;;;5.70;;
11731;SDS011;5922;53.734;10.258;2022-08-18T03:04:27;6.53;;;5.57;;
11731;SDS011;5922;53.734;10.258;2022-08-18T03:06:57;6.70;;;5.40;;
11731;SDS011;5922;53.734;10.258;2022-08-18T03:09:25;7.30;;;5.30;;
11731;SDS011;5922;53.734;10.258;2022-08-18T03:11:52;8.40;;;5.40;;
11731;SDS011;5922;53.734;10.258;2022-08-18T03:14:19;8.77;;;5.57;;
11731;SDS011;5922;53.734;10.258;2022-08-18T03:16:47;6.07;;;5.27;;
11731;SDS011;5922;53.734;10.258;2022-08-18T03:19:14;6.10;;;5.50;;
11731;SDS011;5922;53.734;10.258;2022-08-18T03:21:42;7.27;;;5.80;;
11731;SDS011;5922;53.734;10.258;2022-08-18T03:24:19;9.33;;;5.37;;
11731;SDS011;5922;53.734;10.258;2022-08-18T03:26:46;6.87;;;5.83;;
11731;SDS011;5922;53.734;10.258;2022-08-18T03:29:13;6.73;;;5.17;;
11731;SDS011;5922;53.734;10.258;2022-08-18T03:31:41;6.63;;;5.63;;
11731;SDS011;5922;53.734;10.258;2022-08-18T03:34:09;8.97;;;5.80;;
11731;SDS011;5922;53.734;10.258;2022-08-18T03:36:36;6.80;;;6.10;;
11731;SDS011;5922;53.734;10.258;2022-08-18T03:39:04;6.97;;;5.90;;
11731;SDS011;5922;53.734;10.258;2022-08-18T03:41:33;6.80;;;6.00;;
11731;SDS011;5922;53.734;10.258;2022-08-18T03:44:01;8.50;;;6.67;;
11731;SDS011;5922;53.734;10.258;2022-08-18T03:46:28;8.17;;;6.57;;
11731;SDS011;5922;53.734;10.258;2022-08-18T03:48:56;7.53;;;6.73;;
11731;SDS011;5922;53.734;10.258;2022-08-18T03:51:27;6.93;;;6.03;;
11731;SDS011;5922;53.734;10.258;2022-08-18T03:53:57;7.70;;;6.87;;
11731;SDS011;5922;53.734;10.258;2022-08-18T03:56:25;7.50;;;6.83;;
11731;SDS011;5922;53.734;10.258;2022-08-18T03:58:55;8.87;;;6.93;;
11731;SDS011;5922;53.734;10.258;2022-08-18T04:01:23;8.50;;;6.87;;
11731;SDS011;5922;53.734;10.258;2022-08-18T04:03:51;8.10;;;6.87;;
11731;SDS011;5922;53.734;10.258;2022-08-18T04:06:21;7.60;;;6.80;;
11731;SDS011;5922;53.734;10.258;2022-08-18T04:08:49;8.20;;;6.83;;
11731;SDS011;5922;53.734;10.258;2022-08-18T04:11:16;7.83;;;7.00;;
11731;SDS011;5922;53.734;10.258;2022-08-18T04:13:44;9.03;;;7.00;;
11731;SDS011;5922;53.734;10.258;2022-08-18T04:18:54;10.17;;;7.20;;
11731;SDS011;5922;53.734;10.258;2022-08-18T04:21:24;8.67;;;7.70;;
11731;SDS011;5922;53.734;10.258;2022-08-18T04:23:51;8.13;;;7.33;;
11731;SDS011;5922;53.734;10.258;2022-08-18T04:26:18;9.53;;;7.03;;
11731;SDS011;5922;53.734;10.258;2022-08-18T04:28:45;9.47;;;7.40;;
11731;SDS011;5922;53.734;10.258;2022-08-18T04:31:13;7.63;;;6.93;;
11731;SDS011;5922;53.734;10.258;2022-08-18T04:33:42;11.33;;;6.63;;
11731;SDS011;5922;53.734;10.258;2022-08-18T04:36:12;7.87;;;6.70;;
11731;SDS011;5922;53.734;10.258;2022-08-18T04:38:40;7.93;;;6.97;;
11731;SDS011;5922;53.734;10.258;2022-08-18T04:41:07;7.00;;;6.30;;
11731;SDS011;5922;53.734;10.258;2022-08-18T04:43:35;9.63;;;6.90;;
11731;SDS011;5922;53.734;10.258;2022-08-18T04:46:02;9.90;;;6.73;;
11731;SDS011;5922;53.734;10.258;2022-08-18T04:48:31;11.03;;;6.67;;
11731;SDS011;5922;53.734;10.258;2022-08-18T04:51:02;10.17;;;6.43;;
11731;SDS011;5922;53.734;10.258;2022-08-18T04:53:31;8.33;;;7.10;;
11731;SDS011;5922;53.734;10.258;2022-08-18T04:56:14;7.80;;;6.90;;
11731;SDS011;5922;53.734;10.258;2022-08-18T04:58:42;8.63;;;6.47;;
11731;SDS011;5922;53.734;10.258;2022-08-18T05:01:09;9.17;;;6.77;;
11731;SDS011;5922;53.734;10.258;2022-08-18T05:03:36;9.93;;;7.27;;
11731;SDS011;5922;53.734;10.258;2022-08-18T05:06:04;7.77;;;7.07;;
11731;SDS011;5922;53.734;10.258;2022-08-18T05:08:37;8.63;;;7.00;;
11731;SDS011;5922;53.734;10.258;2022-08-18T05:11:04;12.67;;;6.93;;
11731;SDS011;5922;53.734;10.258;2022-08-18T05:13:32;10.73;;;6.80;;
11731;SDS011;5922;53.734;10.258;2022-08-18T05:15:59;10.63;;;7.30;;
11731;SDS011;5922;53.734;10.258;2022-08-18T05:18:28;8.33;;;7.07;;
11731;SDS011;5922;53.734;10.258;2022-08-18T05:20:55;9.87;;;7.20;;
11731;SDS011;5922;53.734;10.258;2022-08-18T05:23:26;8.93;;;7.17;;
11731;SDS011;5922;53.734;10.258;2022-08-18T05:25:59;10.33;;;6.83;;
11731;SDS011;5922;53.734;10.258;2022-08-18T05:28:27;10.63;;;7.50;;
11731;SDS011;5922;53.734;10.258;2022-08-18T05:30:55;8.97;;;6.93;;
11731;SDS011;5922;53.734;10.258;2022-08-18T05:33:22;7.77;;;6.93;;
11731;SDS011;5922;53.734;10.258;2022-08-18T05:35:50;11.63;;;7.10;;
11731;SDS011;5922;53.734;10.258;2022-08-18T05:38:25;9.40;;;7.97;;
11731;SDS011;5922;53.734;10.258;2022-08-18T05:41:00;9.70;;;7.07;;
11731;SDS011;5922;53.734;10.258;2022-08-18T05:43:30;13.60;;;7.10;;
11731;SDS011;5922;53.734;10.258;2022-08-18T05:45:57;11.87;;;8.03;;
11731;SDS011;5922;53.734;10.258;2022-08-18T05:48:25;15.13;;;7.97;;
11731;SDS011;5922;53.734;10.258;2022-08-18T05:50:52;9.20;;;7.73;;
11731;SDS011;5922;53.734;10.258;2022-08-18T05:53:20;10.30;;;8.00;;
11731;SDS011;5922;53.734;10.258;2022-08-18T05:56:10;8.23;;;7.27;;
11731;SDS011;5922;53.734;10.258;2022-08-18T05:58:56;9.57;;;7.20;;
11731;SDS011;5922;53.734;10.258;2022-08-18T06:01:26;10.57;;;8.03;;
11731;SDS011;5922;53.734;10.258;2022-08-18T06:03:56;9.80;;;7.23;;
11731;SDS011;5922;53.734;10.258;2022-08-18T06:06:25;8.63;;;7.73;;
11731;SDS011;5922;53.734;10.258;2022-08-18T06:08:55;8.70;;;7.90;;
11731;SDS011;5922;53.734;10.258;2022-08-18T06:11:25;10.53;;;7.90;;
11731;SDS011;5922;53.734;10.258;2022-08-18T06:13:52;9.00;;;8.10;;
11731;SDS011;5922;53.734;10.258;2022-08-18T06:16:22;11.03;;;7.73;;
11731;SDS011;5922;53.734;10.258;2022-08-18T06:18:52;11.27;;;7.80;;
11731;SDS011;5922;53.734;10.258;2022-08-18T06:21:35;9.73;;;8.13;;
11731;SDS011;5922;53.734;10.258;2022-08-18T06:24:09;10.77;;;8.37;;
11731;SDS011;5922;53.734;10.258;2022-08-18T06:26:49;11.30;;;8.43;;
11731;SDS011;5922;53.734;10.258;2022-08-18T06:29:24;9.03;;;7.47;;
11731;SDS011;5922;53.734;10.258;2022-08-18T06:31:55;10.03;;;8.40;;
11731;SDS011;5922;53.734;10.258;2022-08-18T06:34:29;11.50;;;8.13;;
11731;SDS011;5922;53.734;10.258;2022-08-18T06:36:58;10.13;;;8.20;;
11731;SDS011;5922;53.734;10.258;2022-08-18T06:39:28;8.57;;;7.60;;
11731;SDS011;5922;53.734;10.258;2022-08-18T06:41:58;9.23;;;7.47;;
11731;SDS011;5922;53.734;10.258;2022-08-18T06:44:31;9.53;;;6.73;;
11731;SDS011;5922;53.734;10.258;2022-08-18T06:47:01;9.93;;;7.43;;
11731;SDS011;5922;53.734;10.258;2022-08-18T06:49:36;9.67;;;7.30;;
11731;SDS011;5922;53.734;10.258;2022-08-18T06:52:24;11.13;;;7.30;;
11731;SDS011;5922;53.734;10.258;2022-08-18T06:54:53;11.77;;;7.80;;
11731;SDS011;5922;53.734;10.258;2022-08-18T06:57:24;8.03;;;7.10;;
11731;SDS011;5922;53.734;10.258;2022-08-18T06:59:59;10.23;;;7.70;;
11731;SDS011;5922;53.734;10.258;2022-08-18T07:02:32;8.33;;;7.40;;
11731;SDS011;5922;53.734;10.258;2022-08-18T07:05:04;10.27;;;7.77;;
11731;SDS011;5922;53.734;10.258;2022-08-18T07:07:33;11.27;;;6.47;;
11731;SDS011;5922;53.734;10.258;2022-08-18T07:10:00;8.47;;;7.23;;
11731;SDS011;5922;53.734;10.258;2022-08-18T07:12:29;10.87;;;7.50;;
11731;SDS011;5922;53.734;10.258;2022-08-18T07:14:57;8.80;;;7.53;;
11731;SDS011;5922;53.734;10.258;2022-08-18T07:17:26;10.87;;;7.93;;
11731;SDS011;5922;53.734;10.258;2022-08-18T07:19:54;9.97;;;7.60;;
11731;SDS011;5922;53.734;10.258;2022-08-18T07:22:22;8.80;;;7.90;;
11731;SDS011;5922;53.734;10.258;2022-08-18T07:24:50;9.63;;;7.90;;
11731;SDS011;5922;53.734;10.258;2022-08-18T07:27:19;10.18;;;8.02;;
11731;SDS011;5922;53.734;10.258;2022-08-18T07:30:00;10.15;;;8.10;;
11731;SDS011;5922;53.734;10.258;2022-08-18T07:32:31;9.38;;;8.45;;
11731;SDS011;5922;53.734;10.258;2022-08-18T07:34:59;10.40;;;9.32;;
11731;SDS011;5922;53.734;10.258;2022-08-18T07:37:29;12.25;;;9.82;;
11731;SDS011;5922;53.734;10.258;2022-08-18T07:39:58;12.70;;;10.00;;
11731;SDS011;5922;53.734;10.258;2022-08-18T07:42:30;11.52;;;9.98;;
11731;SDS011;5922;53.734;10.258;2022-08-18T07:45:04;14.05;;;10.98;;
11731;SDS011;5922;53.734;10.258;2022-08-18T07:47:33;11.52;;;10.32;;
11731;SDS011;5922;53.734;10.258;2022-08-18T07:50:02;11.82;;;10.60;;
11731;SDS011;5922;53.734;10.258;2022-08-18T07:52:30;11.65;;;9.40;;
11731;SDS011;5922;53.734;10.258;2022-08-18T07:55:00;12.07;;;9.50;;
11731;SDS011;5922;53.734;10.258;2022-08-18T07:57:33;13.83;;;9.70;;
11731;SDS011;5922;53.734;10.258;2022-08-18T08:00:06;12.70;;;11.38;;
11731;SDS011;5922;53.734;10.258;2022-08-18T08:02:39;14.27;;;11.45;;
11731;SDS011;5922;53.734;10.258;2022-08-18T08:05:13;16.90;;;12.83;;
11731;SDS011;5922;53.734;10.258;2022-08-18T08:07:44;14.67;;;12.33;;
11731;SDS011;5922;53.734;10.258;2022-08-18T08:10:25;16.10;;;14.13;;
11731;SDS011;5922;53.734;10.258;2022-08-18T08:12:55;16.17;;;14.50;;
11731;SDS011;5922;53.734;10.258;2022-08-18T08:15:29;17.23;;;15.20;;
11731;SDS011;5922;53.734;10.258;2022-08-18T08:18:00;16.30;;;14.73;;
11731;SDS011;5922;53.734;10.258;2022-08-18T08:20:31;16.97;;;15.27;;
11731;SDS011;5922;53.734;10.258;2022-08-18T08:23:04;17.97;;;16.20;;
11731;SDS011;5922;53.734;10.258;2022-08-18T08:25:35;19.43;;;17.63;;
11731;SDS011;5922;53.734;10.258;2022-08-18T08:28:05;20.57;;;17.07;;
11731;SDS011;5922;53.734;10.258;2022-08-18T08:30:37;20.90;;;18.77;;
11731;SDS011;5922;53.734;10.258;2022-08-18T08:33:09;26.17;;;20.70;;
11731;SDS011;5922;53.734;10.258;2022-08-18T08:35:40;21.97;;;19.77;;
11731;SDS011;5922;53.734;10.258;2022-08-18T08:38:10;26.00;;;23.30;;
11731;SDS011;5922;53.734;10.258;2022-08-18T08:40:45;28.90;;;25.90;;
11731;SDS011;5922;53.734;10.258;2022-08-18T08:43:14;31.03;;;27.83;;
11731;SDS011;5922;53.734;10.258;2022-08-18T08:45:44;29.50;;;26.40;;
11731;SDS011;5922;53.734;10.258;2022-08-18T08:48:15;31.13;;;27.00;;
11731;SDS011;5922;53.734;10.258;2022-08-18T08:50:44;34.80;;;29.67;;
11731;SDS011;5922;53.734;10.258;2022-08-18T08:53:15;38.63;;;31.60;;
11731;SDS011;5922;53.734;10.258;2022-08-18T08:55:44;39.73;;;32.03;;
11731;SDS011;5922;53.734;10.258;2022-08-18T08:58:15;38.43;;;31.37;;
11731;SDS011;5922;53.734;10.258;2022-08-18T09:00:45;35.17;;;30.47;;
11731;SDS011;5922;53.734;10.258;2022-08-18T09:03:20;37.73;;;31.77;;
11731;SDS011;5922;53.734;10.258;2022-08-18T09:05:48;34.77;;;29.60;;
11731;SDS011;5922;53.734;10.258;2022-08-18T09:08:21;34.90;;;28.30;;
11731;SDS011;5922;53.734;10.258;2022-08-18T09:11:05;33.93;;;29.13;;
11731;SDS011;5922;53.734;10.258;2022-08-18T09:13:52;32.53;;;27.67;;
11731;SDS011;5922;53.734;10.258;2022-08-18T09:16:33;30.93;;;27.60;;
11731;SDS011;5922;53.734;10.258;2022-08-18T09:19:06;33.13;;;28.10;;
11731;SDS011;5922;53.734;10.258;2022-08-18T09:21:39;32.93;;;27.90;;
11731;SDS011;5922;53.734;10.258;2022-08-18T09:24:10;30.97;;;26.50;;
11731;SDS011;5922;53.734;10.258;2022-08-18T09:26:43;33.43;;;28.10;;
11731;SDS011;5922;53.734;10.258;2022-08-18T09:29:14;29.53;;;26.33;;
11731;SDS011;5922;53.734;10.258;2022-08-18T09:31:44;29.27;;;25.37;;
11731;SDS011;5922;53.734;10.258;2022-08-18T09:37:00;27.90;;;23.43;;
11731;SDS011;5922;53.734;10.258;2022-08-18T09:39:30;26.53;;;23.77;;
11731;SDS011;5922;53.734;10.258;2022-08-18T09:42:16;29.00;;;24.20;;
11731;SDS011;5922;53.734;10.258;2022-08-18T09:44:57;31.23;;;24.67;;
11731;SDS011;5922;53.734;10.258;2022-08-18T09:52:56;30.47;;;25.63;;
11731;SDS011;5922;53.734;10.258;2022-08-18T09:58:13;31.13;;;26.50;;
11731;SDS011;5922;53.734;10.258;2022-08-18T10:00:41;30.67;;;26.43;;
11731;SDS011;5922;53.734;10.258;2022-08-18T10:03:18;32.53;;;26.03;;
11731;SDS011;5922;53.734;10.258;2022-08-18T10:08:48;30.63;;;25.67;;
11731;SDS011;5922;53.734;10.258;2022-08-18T10:11:22;28.80;;;25.40;;
11731;SDS011;5922;53.734;10.258;2022-08-18T10:13:56;28.27;;;25.03;;
11731;SDS011;5922;53.734;10.258;2022-08-18T10:16:26;27.70;;;24.53;;
11731;SDS011;5922;53.734;10.258;2022-08-18T10:18:59;28.03;;;25.17;;
11731;SDS011;5922;53.734;10.258;2022-08-18T10:21:28;25.07;;;22.37;;
11731;SDS011;5922;53.734;10.258;2022-08-18T10:23:58;25.10;;;22.50;;
11731;SDS011;5922;53.734;10.258;2022-08-18T10:29:41;23.87;;;21.33;;
11731;SDS011;5922;53.734;10.258;2022-08-18T10:34:47;23.63;;;21.30;;
11731;SDS011;5922;53.734;10.258;2022-08-18T10:37:15;21.50;;;19.30;;
11731;SDS011;5922;53.734;10.258;2022-08-18T10:39:45;23.03;;;20.50;;
11731;SDS011;5922;53.734;10.258;2022-08-18T10:42:17;23.23;;;20.83;;
11731;SDS011;5922;53.734;10.258;2022-08-18T10:44:46;22.70;;;20.43;;
11731;SDS011;5922;53.734;10.258;2022-08-18T10:47:24;21.30;;;18.90;;
11731;SDS011;5922;53.734;10.258;2022-08-18T10:49:53;19.47;;;17.37;;
11731;SDS011;5922;53.734;10.258;2022-08-18T10:52:27;20.63;;;17.40;;
11731;SDS011;5922;53.734;10.258;2022-08-18T11:00:26;20.67;;;18.63;;
11731;SDS011;5922;53.734;10.258;2022-08-18T11:03:07;21.97;;;19.23;;
11731;SDS011;5922;53.734;10.258;2022-08-18T11:05:37;21.30;;;19.07;;
11731;SDS011;5922;53.734;10.258;2022-08-18T11:08:05;21.87;;;19.50;;
11731;SDS011;5922;53.734;10.258;2022-08-18T11:10:34;20.93;;;18.57;;
11731;SDS011;5922;53.734;10.258;2022-08-18T11:13:03;19.83;;;17.77;;
11731;SDS011;5922;53.734;10.258;2022-08-18T11:15:35;21.30;;;18.07;;
11731;SDS011;5922;53.734;10.258;2022-08-18T11:18:07;20.30;;;17.83;;
11731;SDS011;5922;53.734;10.258;2022-08-18T11:20:39;20.80;;;18.70;;
11731;SDS011;5922;53.734;10.258;2022-08-18T11:23:10;23.80;;;18.55;;
11731;SDS011;5922;53.734;10.258;2022-08-18T11:25:38;18.63;;;16.80;;
11731;SDS011;5922;53.734;10.258;2022-08-18T11:28:13;19.30;;;16.50;;
11731;SDS011;5922;53.734;10.258;2022-08-18T11:30:40;21.00;;;18.17;;
11731;SDS011;5922;53.734;10.258;2022-08-18T11:33:12;21.67;;;17.05;;
11731;SDS011;5922;53.734;10.258;2022-08-18T11:35:45;20.40;;;17.73;;
11731;SDS011;5922;53.734;10.258;2022-08-18T11:38:13;18.37;;;16.47;;
11731;SDS011;5922;53.734;10.258;2022-08-18T11:40:41;20.20;;;17.67;;
11731;SDS011;5922;53.734;10.258;2022-08-18T11:43:10;20.23;;;17.57;;
11731;SDS011;5922;53.734;10.258;2022-08-18T11:45:49;20.40;;;18.13;;
11731;SDS011;5922;53.734;10.258;2022-08-18T11:48:18;18.80;;;16.80;;
11731;SDS011;5922;53.734;10.258;2022-08-18T11:50:49;17.67;;;15.87;;
11731;SDS011;5922;53.734;10.258;2022-08-18T11:53:34;17.67;;;15.23;;
11731;SDS011;5922;53.734;10.258;2022-08-18T11:56:03;19.60;;;17.50;;
11731;SDS011;5922;53.734;10.258;2022-08-18T11:58:36;19.00;;;16.57;;
11731;SDS011;5922;53.734;10.258;2022-08-18T12:01:04;19.13;;;16.23;;
11731;SDS011;5922;53.734;10.258;2022-08-18T12:03:36;17.50;;;15.70;;
11731;SDS011;5922;53.734;10.258;2022-08-18T12:06:10;17.60;;;15.33;;
11731;SDS011;5922;53.734;10.258;2022-08-18T12:08:46;17.57;;;15.33;;
11731;SDS011;5922;53.734;10.258;2022-08-18T12:11:15;17.13;;;15.40;;
11731;SDS011;5922;53.734;10.258;2022-08-18T12:13:46;17.17;;;15.27;;
11731;SDS011;5922;53.734;10.258;2022-08-18T12:16:15;16.90;;;15.20;;
11731;SDS011;5922;53.734;10.258;2022-08-18T12:18:43;17.97;;;16.13;;
11731;SDS011;5922;53.734;10.258;2022-08-18T12:21:12;18.00;;;16.05;;
11731;SDS011;5922;53.734;10.258;2022-08-18T12:23:40;16.50;;;14.73;;
11731;SDS011;5922;53.734;10.258;2022-08-18T12:26:07;16.85;;;15.15;;
11731;SDS011;5922;53.734;10.258;2022-08-18T12:28:35;18.40;;;16.60;;
11731;SDS011;5922;53.734;10.258;2022-08-18T12:31:03;17.20;;;15.43;;
11731;SDS011;5922;53.734;10.258;2022-08-18T12:33:31;15.88;;;14.38;;
11731;SDS011;5922;53.734;10.258;2022-08-18T12:35:58;16.17;;;14.57;;
11731;SDS011;5922;53.734;10.258;2022-08-18T12:38:26;16.17;;;14.57;;
11731;SDS011;5922;53.734;10.258;2022-08-18T12:40:53;15.45;;;14.05;;
11731;SDS011;5922;53.734;10.258;2022-08-18T12:43:21;14.00;;;12.70;;
11731;SDS011;5922;53.734;10.258;2022-08-18T12:45:48;15.73;;;14.27;;
11731;SDS011;5922;53.734;10.258;2022-08-18T12:48:15;16.03;;;14.33;;
11731;SDS011;5922;53.734;10.258;2022-08-18T12:50:43;15.25;;;13.93;;
11731;SDS011;5922;53.734;10.258;2022-08-18T12:53:10;16.10;;;14.52;;
11731;SDS011;5922;53.734;10.258;2022-08-18T12:55:40;16.52;;;14.88;;
11731;SDS011;5922;53.734;10.258;2022-08-18T12:58:08;15.35;;;13.80;;
11731;SDS011;5922;53.734;10.258;2022-08-18T13:00:36;14.82;;;12.57;;
11731;SDS011;5922;53.734;10.258;2022-08-18T13:03:04;14.73;;;13.35;;
11731;SDS011;5922;53.734;10.258;2022-08-18T13:05:32;13.52;;;12.23;;
11731;SDS011;5922;53.734;10.258;2022-08-18T13:08:00;13.45;;;12.10;;
11731;SDS011;5922;53.734;10.258;2022-08-18T13:10:28;13.10;;;11.00;;
11731;SDS011;5922;53.734;10.258;2022-08-18T13:12:56;11.88;;;10.77;;
11731;SDS011;5922;53.734;10.258;2022-08-18T13:15:24;15.00;;;13.60;;
11731;SDS011;5922;53.734;10.258;2022-08-18T13:17:51;12.57;;;11.43;;
11731;SDS011;5922;53.734;10.258;2022-08-18T13:20:19;13.15;;;11.40;;
11731;SDS011;5922;53.734;10.258;2022-08-18T13:22:46;15.15;;;11.95;;
11731;SDS011;5922;53.734;10.258;2022-08-18T13:25:14;11.88;;;10.77;;
11731;SDS011;5922;53.734;10.258;2022-08-18T13:27:42;12.02;;;10.75;;
11731;SDS011;5922;53.734;10.258;2022-08-18T13:30:13;13.75;;;11.15;;
11731;SDS011;5922;53.734;10.258;2022-08-18T13:32:41;12.40;;;11.10;;
11731;SDS011;5922;53.734;10.258;2022-08-18T13:35:09;14.43;;;12.90;;
11731;SDS011;5922;53.734;10.258;2022-08-18T13:37:37;12.55;;;11.35;;
11731;SDS011;5922;53.734;10.258;2022-08-18T13:40:05;11.18;;;10.18;;
11731;SDS011;5922;53.734;10.258;2022-08-18T13:42:39;10.82;;;9.82;;
11731;SDS011;5922;53.734;10.258;2022-08-18T13:45:07;10.77;;;9.73;;
11731;SDS011;5922;53.734;10.258;2022-08-18T13:47:38;11.48;;;10.30;;
11731;SDS011;5922;53.734;10.258;2022-08-18T13:50:06;10.65;;;9.60;;
11731;SDS011;5922;53.734;10.258;2022-08-18T13:52:34;12.15;;;10.80;;
11731;SDS011;5922;53.734;10.258;2022-08-18T13:55:02;10.82;;;9.70;;
11731;SDS011;5922;53.734;10.258;2022-08-18T13:57:30;9.77;;;8.77;;
11731;SDS011;5922;53.734;10.258;2022-08-18T13:59:57;9.63;;;8.63;;
11731;SDS011;5922;53.734;10.258;2022-08-18T14:02:24;9.27;;;8.38;;
11731;SDS011;5922;53.734;10.258;2022-08-18T14:04:53;12.25;;;8.90;;
11731;SDS011;5922;53.734;10.258;2022-08-18T14:07:20;9.60;;;8.75;;
11731;SDS011;5922;53.734;10.258;2022-08-18T14:09:47;8.82;;;7.93;;
11731;SDS011;5922;53.734;10.258;2022-08-18T14:12:15;10.15;;;9.25;;
11731;SDS011;5922;53.734;10.258;2022-08-18T14:14:43;10.88;;;9.85;;
11731;SDS011;5922;53.734;10.258;2022-08-18T14:17:10;12.90;;;11.48;;
11731;SDS011;5922;53.734;10.258;2022-08-18T14:19:37;11.88;;;10.68;;
11731;SDS011;5922;53.734;10.258;2022-08-18T14:22:24;11.30;;;10.05;;
11731;SDS011;5922;53.734;10.258;2022-08-18T14:25:09;13.38;;;12.05;;
11731;SDS011;5922;53.734;10.258;2022-08-18T14:27:53;12.73;;;11.48;;
11731;SDS011;5922;53.734;10.258;2022-08-18T14:30:27;16.00;;;12.88;;
11731;SDS011;5922;53.734;10.258;2022-08-18T14:36:04;13.15;;;11.50;;
11731;SDS011;5922;53.734;10.258;2022-08-18T14:38:32;15.55;;;13.95;;
11731;SDS011;5922;53.734;10.258;2022-08-18T14:41:01;15.93;;;14.35;;
11731;SDS011;5922;53.734;10.258;2022-08-18T14:43:29;15.15;;;13.75;;
11731;SDS011;5922;53.734;10.258;2022-08-18T14:45:57;16.00;;;14.20;;
11731;SDS011;5922;53.734;10.258;2022-08-18T14:48:25;20.50;;;16.05;;
11731;SDS011;5922;53.734;10.258;2022-08-18T14:50:52;14.23;;;12.93;;
11731;SDS011;5922;53.734;10.258;2022-08-18T14:53:21;15.13;;;12.07;;
11731;SDS011;5922;53.734;10.258;2022-08-18T14:55:51;13.45;;;12.13;;
11731;SDS011;5922;53.734;10.258;2022-08-18T14:58:19;16.45;;;14.85;;
11731;SDS011;5922;53.734;10.258;2022-08-18T15:00:46;16.92;;;13.35;;
11731;SDS011;5922;53.734;10.258;2022-08-18T15:03:13;16.10;;;14.50;;
11731;SDS011;5922;53.734;10.258;2022-08-18T15:05:40;16.33;;;14.70;;
11731;SDS011;5922;53.734;10.258;2022-08-18T15:08:07;22.60;;;14.48;;
11731;SDS011;5922;53.734;10.258;2022-08-18T15:10:35;14.30;;;12.85;;
11731;SDS011;5922;53.734;10.258;2022-08-18T15:13:12;13.10;;;11.85;;
11731;SDS011;5922;53.734;10.258;2022-08-18T15:15:40;14.50;;;13.10;;
11731;SDS011;5922;53.734;10.258;2022-08-18T15:18:08;14.13;;;12.80;;
11731;SDS011;5922;53.734;10.258;2022-08-18T15:20:35;14.48;;;13.00;;
11731;SDS011;5922;53.734;10.258;2022-08-18T15:23:23;12.63;;;11.50;;